Time;durP1;ratioP1;P1;durP2;ratioP2;P2;SDS_P1;SDS_P2;PMS_P1;PMS_P2;Temp;Humidity;BMP_temperature;BMP_pressure;BME280_temperature;BME280_humidity;BME280_pressure;Samples;Min_cycle;Max_cycle;Signal;HPM_P1;HPM_P2
2023/05/02 00:07:41;;;;;;;5.50;3.80;;;;;;;8.40;49.30;99406.86;436366;1252;140230;-67
2023/05/02 00:17:47;;;;;;;5.20;3.30;;;;;;;8.48;49.52;99402.23;436190;1254;138156;-66
2023/05/02 00:27:52;;;;;;;5.60;3.50;;;;;;;8.70;49.82;99389.43;436137;1254;139593;-66
2023/05/02 00:38:00;;;;;;;8.00;3.90;;;;;;;8.96;50.02;99380.09;436636;1254;138291;-66
2023/05/02 00:48:08;;;;;;;4.40;2.80;;;;;;;9.02;50.21;99366.77;436499;1254;139155;-66
2023/05/02 00:58:16;;;;;;;6.60;3.40;;;;;;;8.96;50.37;99361.03;436985;1251;139890;-67
2023/05/02 01:08:34;;;;;;;6.50;3.80;;;;;;;8.92;50.77;99352.34;436477;1251;139733;-66
2023/05/02 01:18:43;;;;;;;6.60;4.00;;;;;;;8.81;51.36;99342.05;436583;1251;138237;-66
2023/05/02 01:28:57;;;;;;;4.50;3.60;;;;;;;8.67;51.68;99335.36;436286;1254;139371;-65
2023/05/02 01:39:06;;;;;;;5.00;3.70;;;;;;;8.57;52.33;99330.21;436331;1251;139982;-66
2023/05/02 01:49:12;;;;;;;8.60;4.30;;;;;;;8.45;52.99;99328.42;436432;1251;139292;-67
2023/05/02 01:59:20;;;;;;;5.30;4.20;;;;;;;8.33;53.75;99314.64;436550;1254;139949;-66
2023/05/02 02:09:25;;;;;;;5.80;3.80;;;;;;;8.21;54.48;99307.70;436920;1254;139737;-66
2023/05/02 02:19:33;;;;;;;5.00;3.80;;;;;;;8.09;55.22;99301.91;436437;1254;140596;-67
2023/05/02 02:29:39;;;;;;;9.40;5.50;;;;;;;8.03;55.85;99302.84;437381;1250;138767;-67
2023/05/02 02:39:55;;;;;;;9.10;4.50;;;;;;;8.05;56.43;99297.27;436472;1250;138738;-69
2023/05/02 02:50:14;;;;;;;7.10;4.40;;;;;;;8.16;56.72;99302.59;436713;1250;139956;-67
2023/05/02 03:00:24;;;;;;;6.10;3.70;;;;;;;8.16;56.84;99298.58;436557;1250;138889;-66
2023/05/02 03:10:32;;;;;;;6.30;4.40;;;;;;;8.11;57.19;99297.45;436453;1251;139657;-66
2023/05/02 03:20:38;;;;;;;6.70;4.80;;;;;;;8.12;57.64;99294.23;437177;1254;139033;-65
2023/05/02 03:30:44;;;;;;;6.30;3.90;;;;;;;8.20;57.90;99292.95;437094;1251;138753;-67
2023/05/02 03:40:50;;;;;;;8.10;4.50;;;;;;;8.29;58.11;99296.75;436617;1253;138566;-66
2023/05/02 03:50:56;;;;;;;6.90;4.20;;;;;;;8.49;58.50;99298.91;436911;1253;139361;-66
2023/05/02 04:01:02;;;;;;;6.50;4.90;;;;;;;8.79;58.75;99299.95;436351;1254;139133;-66
2023/05/02 04:11:08;;;;;;;9.00;4.90;;;;;;;9.11;58.41;99304.23;436668;1251;138355;-67
2023/05/02 04:21:14;;;;;;;10.80;4.10;;;;;;;9.48;58.34;99309.81;436363;1253;139107;-67
2023/05/02 04:31:20;;;;;;;6.40;4.70;;;;;;;9.88;57.92;99312.16;436526;1250;138565;-68
2023/05/02 04:41:26;;;;;;;6.10;4.80;;;;;;;10.35;57.59;99314.34;436202;1251;138450;-66
2023/05/02 04:51:31;;;;;;;5.60;3.90;;;;;;;10.72;57.25;99318.60;435912;1254;139578;-66
2023/05/02 05:01:37;;;;;;;7.20;4.40;;;;;;;11.47;56.79;99316.55;436221;1251;139551;-68
2023/05/02 05:11:45;;;;;;;7.40;4.20;;;;;;;13.03;55.37;99319.39;436480;1253;139509;-68
2023/05/02 05:21:50;;;;;;;4.50;3.50;;;;;;;14.80;53.79;99322.50;436124;1251;139231;-67
2023/05/02 05:31:56;;;;;;;5.10;3.40;;;;;;;20.58;47.75;99313.19;435851;1251;138348;-67
2023/05/02 05:42:02;;;;;;;6.20;3.60;;;;;;;22.91;41.71;99319.02;435321;1251;138822;-67
2023/05/02 05:52:08;;;;;;;5.10;3.50;;;;;;;22.13;40.11;99317.66;435913;1251;139362;-67
2023/05/02 06:02:15;;;;;;;3.90;3.50;;;;;;;25.14;37.47;99319.96;436700;1254;139242;-67
2023/05/02 06:12:21;;;;;;;7.40;4.80;;;;;;;27.83;33.96;99326.04;437263;1254;139518;-67
2023/05/02 06:22:27;;;;;;;6.00;3.50;;;;;;;29.97;31.29;99322.46;436832;1251;139585;-66
2023/05/02 06:32:33;;;;;;;4.70;3.10;;;;;;;29.56;29.50;99330.88;436556;1250;139135;-66
2023/05/02 06:42:39;;;;;;;6.70;3.70;;;;;;;27.41;30.04;99342.73;436607;1254;138288;-66
2023/05/02 06:52:43;;;;;;;;;;;;;;;29.99;28.88;99354.57;436403;1251;138935;-66
2023/05/02 07:02:50;;;;;;;5.40;3.90;;;;;;;31.37;27.49;99367.59;436661;1254;125613;-66
2023/05/02 07:12:56;;;;;;;5.40;3.70;;;;;;;34.85;25.74;99379.02;436484;1251;158670;-67
2023/05/02 07:23:01;;;;;;;4.90;3.70;;;;;;;33.39;24.74;99387.99;436415;1251;139921;-61
2023/05/02 07:33:07;;;;;;;9.40;5.20;;;;;;;30.79;26.00;99396.60;436358;1254;138900;-60
2023/05/02 07:43:14;;;;;;;4.90;3.40;;;;;;;29.01;27.07;99409.95;436629;1252;138700;-60
2023/05/02 07:53:20;;;;;;;7.20;4.20;;;;;;;26.21;29.19;99423.02;436650;1251;138883;-61
2023/05/02 08:03:28;;;;;;;6.20;4.80;;;;;;;24.96;31.09;99440.50;436967;1250;138667;-60
2023/05/02 08:13:34;;;;;;;7.80;3.90;;;;;;;23.53;32.65;99447.43;437308;1251;139460;-58
2023/05/02 08:23:41;;;;;;;5.40;3.70;;;;;;;21.93;34.85;99453.52;436697;1251;138742;-60
2023/05/02 08:33:47;;;;;;;7.80;4.20;;;;;;;20.96;37.07;99472.63;436666;1254;140465;-62
2023/05/02 08:43:54;;;;;;;5.60;5.10;;;;;;;20.38;38.51;99489.86;436522;1250;138403;-60
2023/05/02 08:54:01;;;;;;;4.80;4.40;;;;;;;19.31;40.15;99506.18;436430;1251;138647;-60
2023/05/02 09:04:07;;;;;;;6.80;4.60;;;;;;;18.19;42.12;99528.08;436523;1251;138965;-60
2023/05/02 09:14:17;;;;;;;4.90;4.50;;;;;;;17.23;45.07;99543.96;436740;1254;139164;-60
2023/05/02 09:24:25;;;;;;;9.50;5.50;;;;;;;16.49;48.63;99553.98;436984;1251;139572;-59
2023/05/02 09:34:30;;;;;;;5.30;4.90;;;;;;;17.56;49.66;99552.58;436774;1250;140383;-60
2023/05/02 09:44:41;;;;;;;5.60;5.00;;;;;;;18.72;48.23;99563.67;437220;1251;140938;-61
2023/05/02 09:54:49;;;;;;;7.10;5.60;;;;;;;18.35;47.68;99571.54;436830;1254;139606;-59
2023/05/02 10:04:59;;;;;;;6.40;4.20;;;;;;;18.83;47.62;99589.91;437086;1251;138523;-60
2023/05/02 10:15:09;;;;;;;6.10;5.50;;;;;;;19.01;46.63;99602.58;436829;1254;139167;-60
2023/05/02 10:25:15;;;;;;;9.30;5.20;;;;;;;18.84;46.45;99612.52;437164;1251;138635;-59
2023/05/02 10:35:23;;;;;;;7.50;4.80;;;;;;;19.05;46.41;99617.81;436484;1250;138640;-59
2023/05/02 10:45:36;;;;;;;4.80;4.50;;;;;;;19.57;45.79;99621.13;436606;1254;140158;-59
2023/05/02 10:55:43;;;;;;;5.00;4.50;;;;;;;19.60;46.07;99624.77;436675;1255;138493;-61
2023/05/02 11:06:08;;;;;;;4.90;4.40;;;;;;;19.00;46.06;99627.11;436917;1251;138456;-60
2023/05/02 11:16:14;;;;;;;5.80;4.70;;;;;;;18.65;46.95;99640.23;437696;1254;139240;-60
2023/05/02 11:26:25;;;;;;;6.00;4.70;;;;;;;18.58;46.81;99655.81;436979;1250;138451;-60
2023/05/02 11:36:32;;;;;;;8.80;5.10;;;;;;;18.77;46.83;99661.09;436880;1255;139058;-60
2023/05/02 11:46:40;;;;;;;7.10;5.20;;;;;;;19.00;46.50;99673.29;436427;1255;138998;-60
2023/05/02 11:56:46;;;;;;;6.50;5.70;;;;;;;18.63;47.21;99683.52;436690;1254;138775;-60
2023/05/02 12:06:59;;;;;;;7.80;7.10;;;;;;;18.41;48.12;99692.16;436696;1254;138279;-59
2023/05/02 12:17:05;;;;;;;7.20;6.50;;;;;;;18.01;49.14;99703.70;436444;1254;139403;-61
2023/05/02 12:27:13;;;;;;;6.80;6.10;;;;;;;18.21;50.11;99701.55;436523;1251;139341;-59
2023/05/02 12:37:24;;;;;;;8.90;7.10;;;;;;;18.41;49.71;99710.10;437402;1251;138474;-60
2023/05/02 12:47:31;;;;;;;7.00;6.50;;;;;;;18.16;49.87;99713.97;436849;1254;138372;-60
2023/05/02 12:57:37;;;;;;;8.60;7.20;;;;;;;17.80;50.79;99718.73;436667;1254;139029;-60
2023/05/02 13:07:43;;;;;;;8.00;7.20;;;;;;;17.92;51.04;99724.22;436580;1251;138422;-60
2023/05/02 13:17:52;;;;;;;8.40;6.10;;;;;;;18.16;50.87;99731.55;436651;1255;138468;-60
2023/05/02 13:27:58;;;;;;;9.10;7.10;;;;;;;18.28;51.07;99733.63;436673;1251;139572;-59
2023/05/02 13:38:04;;;;;;;11.00;7.10;;;;;;;18.49;50.60;99730.61;436446;1254;140298;-60
2023/05/02 13:48:11;;;;;;;7.10;6.00;;;;;;;18.58;50.50;99723.33;436420;1251;139672;-59
2023/05/02 13:58:16;;;;;;;7.20;6.50;;;;;;;18.80;49.76;99718.48;436763;1250;139355;-59
2023/05/02 14:08:22;;;;;;;8.60;7.00;;;;;;;18.97;49.65;99711.53;436763;1256;138866;-60
2023/05/02 14:18:28;;;;;;;8.30;6.60;;;;;;;19.21;49.45;99708.85;436526;1251;138768;-60
2023/05/02 14:28:34;;;;;;;8.60;6.90;;;;;;;19.08;49.12;99705.45;436429;1255;138930;-60
2023/05/02 14:38:39;;;;;;;6.80;6.10;;;;;;;19.00;49.83;99703.02;436205;1255;139713;-59
2023/05/02 14:48:45;;;;;;;8.30;6.30;;;;;;;18.99;50.02;99702.21;436915;1254;138775;-60
2023/05/02 14:58:51;;;;;;;8.30;6.10;;;;;;;19.02;50.28;99697.55;436007;1256;139566;-60
2023/05/02 15:08:57;;;;;;;7.40;6.00;;;;;;;19.08;50.20;99698.35;436084;1253;139220;-58
2023/05/02 15:19:03;;;;;;;8.60;6.60;;;;;;;18.88;50.59;99698.89;436597;1254;138934;-58
2023/05/02 15:29:09;;;;;;;6.10;5.60;;;;;;;18.71;50.70;99706.77;436318;1253;140112;-59
2023/05/02 15:39:15;;;;;;;6.80;5.50;;;;;;;18.55;50.80;99704.70;436159;1252;140638;-59
2023/05/02 15:49:23;;;;;;;5.50;4.80;;;;;;;18.30;50.66;99701.36;436206;1251;139325;-59
2023/05/02 15:59:29;;;;;;;7.30;4.80;;;;;;;18.17;50.53;99702.77;436236;1256;140885;-60
2023/05/02 16:09:35;;;;;;;5.40;4.80;;;;;;;17.90;50.71;99714.98;436633;1254;139523;-58
2023/05/02 16:19:40;;;;;;;6.60;5.10;;;;;;;17.72;51.45;99720.66;436539;1256;139717;-60
2023/05/02 16:29:47;;;;;;;7.00;4.60;;;;;;;17.52;51.41;99725.66;436259;1255;139955;-60
2023/05/02 16:39:52;;;;;;;5.50;4.60;;;;;;;17.18;51.85;99733.82;436418;1256;183168;-60
2023/05/02 16:50:00;;;;;;;5.90;4.80;;;;;;;16.76;51.31;99757.98;436170;1256;138588;-61
2023/05/02 17:00:11;;;;;;;4.20;3.80;;;;;;;16.24;50.67;99762.77;436507;1254;139540;-60
2023/05/02 17:10:17;;;;;;;3.70;3.40;;;;;;;15.75;50.76;99769.99;436312;1251;139835;-58
2023/05/02 17:20:23;;;;;;;5.00;4.40;;;;;;;15.36;51.20;99769.51;436789;1255;138549;-62
2023/05/02 17:30:30;;;;;;;7.90;4.20;;;;;;;15.13;51.72;99770.09;436731;1254;139015;-58
2023/05/02 17:40:36;;;;;;;15.90;4.70;;;;;;;14.96;52.53;99780.55;436685;1254;138860;-59
2023/05/02 17:50:43;;;;;;;6.80;3.40;;;;;;;14.76;53.04;99796.25;436475;1251;139231;-59
2023/05/02 18:00:50;;;;;;;6.10;4.30;;;;;;;14.56;53.36;99817.98;437035;1254;138588;-60
2023/05/02 18:10:55;;;;;;;5.30;4.60;;;;;;;14.49;52.89;99842.36;436488;1257;139568;-59
2023/05/02 18:21:01;;;;;;;8.20;6.80;;;;;;;14.36;54.22;99854.60;436609;1252;139674;-63
2023/05/02 18:31:14;;;;;;;7.90;6.60;;;;;;;14.16;55.78;99869.06;437151;1251;138844;-60
2023/05/02 18:41:20;;;;;;;10.00;6.60;;;;;;;13.98;56.81;99883.06;437247;1254;138864;-60
2023/05/02 18:51:27;;;;;;;8.10;7.10;;;;;;;13.80;57.73;99895.64;437175;1251;139076;-59
2023/05/02 19:01:33;;;;;;;10.00;6.90;;;;;;;13.67;58.74;99916.48;437247;1250;139319;-58
2023/05/02 19:11:40;;;;;;;9.70;6.60;;;;;;;13.53;59.20;99929.57;436632;1253;148344;-59
2023/05/02 19:21:46;;;;;;;8.00;6.50;;;;;;;13.47;59.54;99943.75;436563;1251;140359;-62
2023/05/02 19:31:52;;;;;;;7.80;6.40;;;;;;;13.41;59.89;99956.58;436706;1254;138590;-59
2023/05/02 19:41:58;;;;;;;8.90;6.30;;;;;;;13.33;60.14;99966.77;436705;1251;139101;-60
2023/05/02 19:52:06;;;;;;;9.50;5.80;;;;;;;13.25;60.69;99979.16;436350;1254;138990;-60
2023/05/02 20:02:12;;;;;;;7.30;6.60;;;;;;;13.10;61.17;99985.98;436560;1254;139060;-58
2023/05/02 20:12:18;;;;;;;7.90;5.50;;;;;;;12.97;61.57;99996.33;435879;1251;139333;-60
2023/05/02 20:22:24;;;;;;;7.40;6.60;;;;;;;12.88;61.68;100006.58;436536;1251;139545;-63
2023/05/02 20:32:29;;;;;;;7.00;5.50;;;;;;;12.80;62.10;100015.05;436820;1251;140482;-58
2023/05/02 20:42:37;;;;;;;5.50;5.00;;;;;;;12.68;62.31;100023.33;437317;1254;139993;-60
2023/05/02 20:52:43;;;;;;;5.50;4.50;;;;;;;12.62;62.44;100036.38;436751;1254;140330;-60
2023/05/02 21:02:49;;;;;;;5.80;5.20;;;;;;;12.52;63.14;100043.16;436978;1254;139938;-59
2023/05/02 21:12:55;;;;;;;5.60;4.40;;;;;;;12.33;63.80;100050.68;437036;1254;139414;-60
2023/05/02 21:23:02;;;;;;;5.50;4.60;;;;;;;12.14;64.50;100062.06;436681;1251;141058;-60
2023/05/02 21:33:08;;;;;;;5.70;4.20;;;;;;;12.00;65.01;100070.80;437189;1251;139861;-59
2023/05/02 21:43:14;;;;;;;4.80;4.30;;;;;;;11.90;65.39;100077.91;436802;1254;139854;-59
2023/05/02 21:53:19;;;;;;;6.00;4.60;;;;;;;11.79;65.74;100084.02;436581;1253;141192;-59
2023/05/02 22:03:26;;;;;;;5.50;4.20;;;;;;;11.67;65.99;100086.15;436249;1251;139436;-59
2023/05/02 22:13:32;;;;;;;4.20;3.80;;;;;;;11.61;66.07;100093.02;437419;1251;140426;-59
2023/05/02 22:23:38;;;;;;;7.20;4.30;;;;;;;11.52;65.90;100101.27;436606;1254;141495;-60
2023/05/02 22:33:48;;;;;;;5.00;3.80;;;;;;;11.44;65.80;100106.09;436480;1254;141527;-60
2023/05/02 22:43:54;;;;;;;5.30;3.40;;;;;;;11.37;66.00;100109.52;437201;1250;139190;-59
2023/05/02 22:54:00;;;;;;;3.80;3.30;;;;;;;11.28;65.21;100108.80;436649;1251;139960;-59
2023/05/02 23:04:06;;;;;;;3.50;1.90;;;;;;;11.16;64.34;100127.34;436688;1251;140412;-59
2023/05/02 23:14:12;;;;;;;2.50;2.00;;;;;;;11.02;63.28;100132.71;436760;1250;140476;-59
2023/05/02 23:24:18;;;;;;;3.60;2.10;;;;;;;10.89;62.87;100139.03;436293;1254;140025;-59
2023/05/02 23:34:23;;;;;;;2.90;2.00;;;;;;;10.80;62.61;100141.27;436239;1251;141846;-58
2023/05/02 23:44:30;;;;;;;4.10;2.90;;;;;;;10.75;62.64;100147.48;436121;1254;139464;-57
2023/05/02 23:54:35;;;;;;;3.50;2.30;;;;;;;10.70;62.75;100153.92;435880;1254;139704;-59
